Time;durP1;ratioP1;P1;durP2;ratioP2;P2;SDS_P1;SDS_P2;PMS_P1;PMS_P2;Temp;Humidity;BMP_temperature;BMP_pressure;BME280_temperature;BME280_humidity;BME280_pressure;Samples;Min_cycle;Max_cycle;Signal;HPM_P1;HPM_P2
2021/05/12 00:01:44;;;;;;;7.53;1.05;;;;;;;;;;5009808;28;20018;-68
2021/05/12 00:04:11;;;;;;;3.05;1.27;;;;;;;;;;5010382;28;20060;-68
2021/05/12 00:06:38;;;;;;;3.78;0.60;;;;;;;;;;5011586;28;20075;-69
2021/05/12 00:09:06;;;;;;;4.47;0.77;;;;;;;;;;5009216;28;20034;-68
2021/05/12 00:11:33;;;;;;;11.10;1.30;;;;;;;;;;5009757;28;20032;-68
2021/05/12 00:14:00;;;;;;;6.22;0.90;;;;;;;;;;5008217;28;20038;-68
2021/05/12 00:16:27;;;;;;;5.68;0.63;;;;;;;;;;5009947;28;20045;-68
2021/05/12 00:18:54;;;;;;;4.55;0.80;;;;;;;;;;5008629;28;20459;-67
2021/05/12 00:22:14;;;;;;;9.10;1.63;;;;;;;;;;4995280;28;20077;-67
2021/05/12 00:24:11;;;;;;;5.70;0.50;;;;;;;;;;5003737;28;20042;-67
2021/05/12 00:26:39;;;;;;;7.53;1.00;;;;;;;;;;5011377;28;20026;-67
2021/05/12 00:29:08;;;;;;;9.55;1.17;;;;;;;;;;4988666;28;20037;-67
2021/05/12 00:31:35;;;;;;;4.72;1.00;;;;;;;;;;4995632;28;20022;-68
2021/05/12 00:34:02;;;;;;;3.38;0.50;;;;;;;;;;5006281;28;20033;-69
2021/05/12 00:36:30;;;;;;;7.25;1.52;;;;;;;;;;5007171;28;20120;-69
2021/05/12 00:38:57;;;;;;;5.32;1.10;;;;;;;;;;4993892;28;20030;-69
2021/05/12 00:41:25;;;;;;;7.97;0.60;;;;;;;;;;5012210;28;20044;-69
2021/05/12 00:43:52;;;;;;;5.82;0.85;;;;;;;;;;5007983;28;20026;-68
2021/05/12 00:46:19;;;;;;;9.40;0.60;;;;;;;;;;4995055;28;20026;-67
2021/05/12 00:48:47;;;;;;;10.82;0.98;;;;;;;;;;5008285;28;20030;-67
2021/05/12 00:51:14;;;;;;;8.77;1.02;;;;;;;;;;5006464;28;20034;-69
2021/05/12 00:53:41;;;;;;;4.75;0.80;;;;;;;;;;5009758;28;20036;-68
2021/05/12 00:56:10;;;;;;;4.30;0.73;;;;;;;;;;5012433;28;20033;-68
2021/05/12 00:58:38;;;;;;;6.13;1.10;;;;;;;;;;4994080;28;20034;-68
2021/05/12 01:01:05;;;;;;;6.50;0.90;;;;;;;;;;5010609;28;20092;-68
2021/05/12 01:03:32;;;;;;;7.40;1.27;;;;;;;;;;5009235;28;20018;-68
2021/05/12 01:06:00;;;;;;;5.90;0.85;;;;;;;;;;4994894;28;20128;-68
2021/05/12 01:08:28;;;;;;;9.50;0.90;;;;;;;;;;5006930;28;20497;-68
2021/05/12 01:10:56;;;;;;;7.95;0.90;;;;;;;;;;5006460;28;20034;-69
2021/05/12 01:13:25;;;;;;;2.20;0.52;;;;;;;;;;4993245;28;20030;-68
2021/05/12 01:15:52;;;;;;;7.63;0.50;;;;;;;;;;5003542;28;20034;-68
2021/05/12 01:18:21;;;;;;;5.85;0.60;;;;;;;;;;4988130;28;20057;-68
2021/05/12 01:20:54;;;;;;;3.25;0.43;;;;;;;;;;4992332;28;20034;-69
2021/05/12 01:23:23;;;;;;;6.50;1.15;;;;;;;;;;5010371;28;20041;-69
2021/05/12 01:25:51;;;;;;;3.15;0.50;;;;;;;;;;4994684;28;20021;-69
2021/05/12 01:28:18;;;;;;;5.50;0.60;;;;;;;;;;5009857;28;20096;-68
2021/05/12 01:30:59;;;;;;;5.93;0.55;;;;;;;;;;5009101;28;20034;-68
2021/05/12 01:33:27;;;;;;;3.28;0.85;;;;;;;;;;4989236;28;20251;-68
2021/05/12 01:38:58;;;;;;;3.17;0.40;;;;;;;;;;5004909;28;20088;-70
2021/05/12 01:41:26;;;;;;;8.63;0.65;;;;;;;;;;4990532;28;20061;-70
2021/05/12 01:43:54;;;;;;;3.53;0.50;;;;;;;;;;4989665;28;20441;-69
2021/05/12 01:46:21;;;;;;;7.03;0.85;;;;;;;;;;5011820;28;20029;-70
2021/05/12 01:48:48;;;;;;;5.72;0.50;;;;;;;;;;4989569;28;20486;-68
2021/05/12 01:51:16;;;;;;;5.50;0.80;;;;;;;;;;5009461;28;20030;-69
2021/05/12 01:53:43;;;;;;;6.50;0.90;;;;;;;;;;5010174;28;20030;-68
2021/05/12 01:56:11;;;;;;;4.30;0.88;;;;;;;;;;5004933;28;20057;-70
2021/05/12 01:58:39;;;;;;;2.70;0.50;;;;;;;;;;5006862;28;20038;-70
2021/05/12 02:01:06;;;;;;;2.92;0.60;;;;;;;;;;4994590;28;20034;-69
2021/05/12 02:03:33;;;;;;;4.90;0.82;;;;;;;;;;4993560;28;20383;-70
2021/05/12 02:06:00;;;;;;;4.40;0.50;;;;;;;;;;5012119;28;20032;-70
2021/05/12 02:08:29;;;;;;;4.88;0.77;;;;;;;;;;5010161;28;20029;-70
2021/05/12 02:10:58;;;;;;;4.47;0.80;;;;;;;;;;5012294;28;20033;-70
2021/05/12 02:13:26;;;;;;;8.32;0.90;;;;;;;;;;4991702;28;20495;-70
2021/05/12 02:15:54;;;;;;;5.30;0.85;;;;;;;;;;5010942;28;20061;-70
2021/05/12 02:18:21;;;;;;;5.13;1.13;;;;;;;;;;5010660;28;20030;-70
2021/05/12 02:20:48;;;;;;;3.40;0.50;;;;;;;;;;5012409;28;20037;-71
2021/05/12 02:23:17;;;;;;;4.18;0.55;;;;;;;;;;4993792;28;20030;-70
2021/05/12 02:25:44;;;;;;;7.07;0.93;;;;;;;;;;4996117;28;20114;-71
2021/05/12 02:28:12;;;;;;;7.28;0.82;;;;;;;;;;5014250;28;20026;-70
2021/05/12 02:30:39;;;;;;;7.85;0.98;;;;;;;;;;5016079;28;20506;-70
2021/05/12 02:33:07;;;;;;;7.15;1.05;;;;;;;;;;5010862;28;20030;-69
2021/05/12 02:35:34;;;;;;;5.65;1.23;;;;;;;;;;4998257;28;20022;-70
2021/05/12 02:38:02;;;;;;;6.05;0.80;;;;;;;;;;5013744;28;20026;-70
2021/05/12 02:40:29;;;;;;;6.15;0.85;;;;;;;;;;5015597;28;20513;-70
2021/05/12 02:42:57;;;;;;;2.85;0.47;;;;;;;;;;5008682;28;20062;-71
2021/05/12 02:45:24;;;;;;;3.88;0.60;;;;;;;;;;5015783;28;20018;-69
2021/05/12 02:47:57;;;;;;;8.77;1.15;;;;;;;;;;5013819;28;20057;-70
2021/05/12 02:50:25;;;;;;;5.60;0.55;;;;;;;;;;5010282;28;20113;-70
2021/05/12 02:52:53;;;;;;;5.25;0.80;;;;;;;;;;4997109;28;20383;-70
2021/05/12 02:55:20;;;;;;;7.43;0.77;;;;;;;;;;5015356;28;20034;-70
2021/05/12 02:57:48;;;;;;;4.72;0.77;;;;;;;;;;5014289;28;20050;-70
2021/05/12 03:00:16;;;;;;;5.78;0.93;;;;;;;;;;5013252;28;20118;-70
2021/05/12 03:02:43;;;;;;;6.65;1.27;;;;;;;;;;5009484;28;20041;-70
2021/05/12 03:05:10;;;;;;;3.78;0.77;;;;;;;;;;4995815;28;20030;-70
2021/05/12 03:07:38;;;;;;;4.88;0.95;;;;;;;;;;4995253;28;20018;-70
2021/05/12 03:10:07;;;;;;;4.63;0.90;;;;;;;;;;5013483;28;20030;-70
2021/05/12 03:12:34;;;;;;;6.57;1.02;;;;;;;;;;5014726;28;20017;-70
2021/05/12 03:15:01;;;;;;;8.93;0.60;;;;;;;;;;5012304;28;20045;-71
2021/05/12 03:17:28;;;;;;;8.18;0.68;;;;;;;;;;5015254;28;20101;-70
2021/05/12 03:19:56;;;;;;;6.60;0.77;;;;;;;;;;4995297;28;20046;-70
2021/05/12 03:22:23;;;;;;;10.73;1.40;;;;;;;;;;5014916;28;20434;-70
2021/05/12 03:24:50;;;;;;;7.03;1.10;;;;;;;;;;5013657;28;20060;-70
2021/05/12 03:27:17;;;;;;;6.95;0.93;;;;;;;;;;5002267;28;20395;-70
2021/05/12 03:29:44;;;;;;;8.93;1.38;;;;;;;;;;5011040;28;20072;-70
2021/05/12 03:32:11;;;;;;;8.57;1.35;;;;;;;;;;4997184;28;20033;-70
2021/05/12 03:34:38;;;;;;;7.15;1.25;;;;;;;;;;5010559;28;20029;-70
2021/05/12 03:37:05;;;;;;;9.93;1.00;;;;;;;;;;5013522;28;20360;-71
2021/05/12 03:39:32;;;;;;;7.00;1.05;;;;;;;;;;5007218;28;20022;-70
2021/05/12 03:41:59;;;;;;;6.85;1.00;;;;;;;;;;5013856;28;20026;-70
2021/05/12 03:44:27;;;;;;;11.95;1.55;;;;;;;;;;5008466;28;20026;-70
2021/05/12 03:46:54;;;;;;;4.38;0.88;;;;;;;;;;5013904;28;20471;-70
2021/05/12 03:49:21;;;;;;;8.38;1.08;;;;;;;;;;5013027;28;20112;-70
2021/05/12 03:51:48;;;;;;;6.78;1.10;;;;;;;;;;5014617;28;20436;-70
2021/05/12 03:54:15;;;;;;;6.22;1.08;;;;;;;;;;5011926;28;20030;-71
2021/05/12 03:56:45;;;;;;;7.00;0.70;;;;;;;;;;5014476;28;20487;-69
2021/05/12 03:59:12;;;;;;;14.13;1.42;;;;;;;;;;4996597;28;20610;-69
2021/05/12 04:01:39;;;;;;;9.15;1.25;;;;;;;;;;5014137;28;20034;-70
2021/05/12 04:04:08;;;;;;;6.85;0.85;;;;;;;;;;4995020;28;20030;-70
2021/05/12 04:06:38;;;;;;;6.75;1.23;;;;;;;;;;4996470;28;20034;-70
2021/05/12 04:09:06;;;;;;;13.00;2.15;;;;;;;;;;5013199;28;20557;-69
2021/05/12 04:11:33;;;;;;;6.13;1.40;;;;;;;;;;5014026;28;20108;-70
2021/05/12 04:14:00;;;;;;;6.70;1.10;;;;;;;;;;4993464;28;20950;-70
2021/05/12 04:16:27;;;;;;;8.20;0.88;;;;;;;;;;5013774;28;20046;-70
2021/05/12 04:18:55;;;;;;;6.78;1.30;;;;;;;;;;5009956;28;20030;-70
2021/05/12 04:21:22;;;;;;;5.25;0.80;;;;;;;;;;4995438;28;20042;-70
2021/05/12 04:23:49;;;;;;;9.13;1.60;;;;;;;;;;4987036;28;20038;-70
2021/05/12 04:26:16;;;;;;;6.82;0.95;;;;;;;;;;4994477;28;20057;-69
2021/05/12 04:28:43;;;;;;;6.22;1.27;;;;;;;;;;5001870;28;20496;-69
2021/05/12 04:31:10;;;;;;;9.13;1.33;;;;;;;;;;5013608;28;20096;-70
2021/05/12 04:33:37;;;;;;;9.43;1.10;;;;;;;;;;4993096;28;20030;-70
2021/05/12 04:36:04;;;;;;;7.47;1.23;;;;;;;;;;5013897;28;20029;-69
2021/05/12 04:38:32;;;;;;;14.27;0.98;;;;;;;;;;5009838;28;20058;-69
2021/05/12 04:40:59;;;;;;;10.52;1.05;;;;;;;;;;4976500;28;20038;-70
2021/05/12 04:43:29;;;;;;;4.60;0.60;;;;;;;;;;4999668;28;20056;-69
2021/05/12 04:45:56;;;;;;;5.90;0.85;;;;;;;;;;5013355;28;20414;-69
2021/05/12 04:48:23;;;;;;;6.53;0.98;;;;;;;;;;5010850;28;20108;-71
2021/05/12 04:50:50;;;;;;;7.90;1.33;;;;;;;;;;5013484;28;20060;-69
2021/05/12 04:53:17;;;;;;;7.47;0.68;;;;;;;;;;4994623;28;20029;-69
2021/05/12 04:55:45;;;;;;;8.60;1.08;;;;;;;;;;4994017;28;20030;-70
2021/05/12 04:58:12;;;;;;;11.52;1.38;;;;;;;;;;5011334;28;20549;-71
2021/05/12 05:00:39;;;;;;;14.82;1.73;;;;;;;;;;5012950;28;20097;-69
2021/05/12 05:03:07;;;;;;;5.32;1.25;;;;;;;;;;5011549;28;20552;-70
2021/05/12 05:05:34;;;;;;;8.95;2.20;;;;;;;;;;4995445;28;20048;-69
2021/05/12 05:08:01;;;;;;;12.73;1.88;;;;;;;;;;5011135;28;20018;-70
2021/05/12 05:10:29;;;;;;;11.57;1.65;;;;;;;;;;4990096;28;20049;-69
2021/05/12 05:12:56;;;;;;;10.68;1.15;;;;;;;;;;5001531;28;20022;-70
2021/05/12 05:15:24;;;;;;;8.20;1.55;;;;;;;;;;5007217;28;20414;-69
2021/05/12 05:17:52;;;;;;;5.88;0.80;;;;;;;;;;5008732;28;20014;-69
2021/05/12 05:20:21;;;;;;;14.02;1.08;;;;;;;;;;4998959;28;20026;-68
2021/05/12 05:22:48;;;;;;;4.70;0.60;;;;;;;;;;5005594;28;20034;-69
2021/05/12 05:25:16;;;;;;;11.13;1.63;;;;;;;;;;5010503;28;20030;-68
2021/05/12 05:27:43;;;;;;;6.75;1.05;;;;;;;;;;5007865;28;20148;-68
2021/05/12 05:30:10;;;;;;;6.32;0.88;;;;;;;;;;5007575;28;20022;-69
2021/05/12 05:32:37;;;;;;;8.88;0.98;;;;;;;;;;5005811;28;20018;-68
2021/05/12 05:35:06;;;;;;;7.57;0.90;;;;;;;;;;5009474;28;20441;-69
2021/05/12 05:37:34;;;;;;;7.47;1.20;;;;;;;;;;5012191;28;20117;-67
2021/05/12 05:40:01;;;;;;;7.25;2.00;;;;;;;;;;4990545;28;20046;-69
2021/05/12 05:42:28;;;;;;;5.43;1.05;;;;;;;;;;5010305;28;20100;-70
2021/05/12 05:44:56;;;;;;;11.85;1.08;;;;;;;;;;5011178;28;20073;-69
2021/05/12 05:47:23;;;;;;;7.18;1.73;;;;;;;;;;5011100;28;20022;-68
2021/05/12 05:49:50;;;;;;;8.57;1.50;;;;;;;;;;5008970;28;20053;-68
2021/05/12 05:52:17;;;;;;;5.50;0.80;;;;;;;;;;5014864;28;20026;-69
2021/05/12 05:54:44;;;;;;;5.65;1.33;;;;;;;;;;4990742;28;20029;-68
2021/05/12 05:57:15;;;;;;;11.90;1.23;;;;;;;;;;4993648;28;20034;-68
2021/05/12 05:59:43;;;;;;;12.23;2.13;;;;;;;;;;5014281;28;20026;-69
2021/05/12 06:02:10;;;;;;;8.38;1.52;;;;;;;;;;5016474;28;20235;-68
2021/05/12 06:04:37;;;;;;;7.95;1.35;;;;;;;;;;4997088;28;20512;-68
2021/05/12 06:07:05;;;;;;;12.02;1.52;;;;;;;;;;5014583;28;20387;-68
2021/05/12 06:09:32;;;;;;;7.55;1.00;;;;;;;;;;4991871;28;20034;-70
2021/05/12 06:11:59;;;;;;;6.10;1.23;;;;;;;;;;4995408;28;20034;-68
2021/05/12 06:14:26;;;;;;;9.15;1.30;;;;;;;;;;4995356;28;20042;-69
2021/05/12 06:16:53;;;;;;;9.55;1.52;;;;;;;;;;5014676;28;20029;-69
2021/05/12 06:19:20;;;;;;;9.85;1.55;;;;;;;;;;5013673;28;20045;-69
2021/05/12 06:21:47;;;;;;;12.55;1.85;;;;;;;;;;5015970;28;20102;-69
2021/05/12 06:24:14;;;;;;;8.30;1.10;;;;;;;;;;5014360;28;20045;-68
2021/05/12 06:26:42;;;;;;;8.25;1.08;;;;;;;;;;5005705;28;20026;-68
2021/05/12 06:29:09;;;;;;;10.88;1.45;;;;;;;;;;5008239;28;20024;-68
2021/05/12 06:31:36;;;;;;;11.02;1.92;;;;;;;;;;5016197;28;20025;-68
2021/05/12 06:34:03;;;;;;;9.57;1.30;;;;;;;;;;5014059;28;20018;-69
2021/05/12 06:36:30;;;;;;;12.32;1.67;;;;;;;;;;4993499;28;20042;-69
2021/05/12 06:38:57;;;;;;;10.88;1.65;;;;;;;;;;5009278;28;20087;-68
2021/05/12 06:41:24;;;;;;;11.27;1.30;;;;;;;;;;4995786;28;20025;-68
2021/05/12 06:43:52;;;;;;;12.80;1.52;;;;;;;;;;5010968;28;20029;-68
2021/05/12 06:46:19;;;;;;;12.40;2.17;;;;;;;;;;4994108;28;20168;-68
2021/05/12 06:48:46;;;;;;;11.20;1.50;;;;;;;;;;4994023;28;20026;-68
2021/05/12 06:51:13;;;;;;;7.93;1.70;;;;;;;;;;5018890;28;20112;-69
2021/05/12 06:53:40;;;;;;;19.40;2.20;;;;;;;;;;4993011;28;20018;-69
2021/05/12 06:56:08;;;;;;;13.73;1.70;;;;;;;;;;5013559;28;20411;-69
2021/05/12 06:58:35;;;;;;;8.55;1.70;;;;;;;;;;5013297;28;20509;-68
2021/05/12 07:01:02;;;;;;;7.97;1.65;;;;;;;;;;4996602;28;20037;-69
2021/05/12 07:03:29;;;;;;;35.42;9.18;;;;;;;;;;4995141;28;20038;-69
2021/05/12 07:05:58;;;;;;;16.75;3.28;;;;;;;;;;5014497;28;20128;-69
2021/05/12 07:08:25;;;;;;;13.48;2.50;;;;;;;;;;5013708;28;20092;-69
2021/05/12 07:10:52;;;;;;;12.05;1.90;;;;;;;;;;4993456;28;20037;-69
2021/05/12 07:13:19;;;;;;;13.32;3.35;;;;;;;;;;4992427;28;20025;-69
2021/05/12 07:15:47;;;;;;;10.73;2.67;;;;;;;;;;5010056;28;20160;-69
2021/05/12 07:18:14;;;;;;;13.23;2.80;;;;;;;;;;4990764;28;20045;-69
2021/05/12 07:20:41;;;;;;;9.05;1.90;;;;;;;;;;5008631;28;20022;-69
2021/05/12 07:23:09;;;;;;;9.88;1.73;;;;;;;;;;4995388;28;20037;-69
2021/05/12 07:25:38;;;;;;;10.48;1.95;;;;;;;;;;4991931;28;20029;-69
2021/05/12 07:28:06;;;;;;;10.30;1.63;;;;;;;;;;5011465;28;20049;-69
2021/05/12 07:30:33;;;;;;;11.65;3.28;;;;;;;;;;4997073;28;20029;-69
2021/05/12 07:33:01;;;;;;;10.30;1.70;;;;;;;;;;5012365;28;20081;-69
2021/05/12 07:35:28;;;;;;;12.50;2.17;;;;;;;;;;5012999;28;20029;-69
2021/05/12 07:37:56;;;;;;;14.30;1.77;;;;;;;;;;5010737;28;20089;-69
2021/05/12 07:40:23;;;;;;;9.93;1.88;;;;;;;;;;5012819;28;20117;-69
2021/05/12 07:42:51;;;;;;;10.15;1.92;;;;;;;;;;4995996;28;20049;-69
2021/05/12 07:45:18;;;;;;;9.18;1.83;;;;;;;;;;5013717;28;20026;-70
2021/05/12 07:47:45;;;;;;;8.15;1.50;;;;;;;;;;5012694;28;20036;-69
2021/05/12 07:50:12;;;;;;;10.07;1.17;;;;;;;;;;5012538;28;20456;-69
2021/05/12 07:52:40;;;;;;;10.10;1.75;;;;;;;;;;5012285;28;20108;-69
2021/05/12 07:55:08;;;;;;;13.57;2.78;;;;;;;;;;5013146;28;20092;-69
2021/05/12 07:57:35;;;;;;;8.63;1.48;;;;;;;;;;5010195;28;20405;-69
2021/05/12 08:00:03;;;;;;;9.32;1.52;;;;;;;;;;5010716;28;20026;-69
2021/05/12 08:02:30;;;;;;;9.10;1.65;;;;;;;;;;5010501;28;20026;-69
2021/05/12 08:04:57;;;;;;;10.18;2.22;;;;;;;;;;5008334;28;20050;-70
2021/05/12 08:07:25;;;;;;;15.93;1.98;;;;;;;;;;5014562;28;20159;-70
2021/05/12 08:09:52;;;;;;;13.13;1.52;;;;;;;;;;5012911;28;20026;-69
2021/05/12 08:12:19;;;;;;;16.15;1.50;;;;;;;;;;5013545;28;20018;-70
2021/05/12 08:14:46;;;;;;;13.15;2.53;;;;;;;;;;5002149;28;20511;-70
2021/05/12 08:17:13;;;;;;;19.33;2.95;;;;;;;;;;4994163;28;20018;-70
2021/05/12 08:19:40;;;;;;;11.10;3.15;;;;;;;;;;5008832;28;20026;-70
2021/05/12 08:22:09;;;;;;;15.82;2.80;;;;;;;;;;5013671;28;20080;-69
2021/05/12 08:24:36;;;;;;;9.00;1.95;;;;;;;;;;5010953;28;20046;-69
2021/05/12 08:27:04;;;;;;;17.63;3.15;;;;;;;;;;5015089;28;20443;-69
2021/05/12 08:29:31;;;;;;;8.23;1.80;;;;;;;;;;4995952;28;20068;-68
2021/05/12 08:31:59;;;;;;;11.15;1.63;;;;;;;;;;5008295;28;20550;-69
2021/05/12 08:34:29;;;;;;;9.70;2.55;;;;;;;;;;5013139;28;20057;-70
2021/05/12 08:36:56;;;;;;;12.82;1.90;;;;;;;;;;5018703;28;20017;-69
2021/05/12 08:39:23;;;;;;;12.82;2.42;;;;;;;;;;5007925;28;20019;-69
2021/05/12 08:41:51;;;;;;;9.23;2.10;;;;;;;;;;5005328;28;20033;-69
2021/05/12 08:44:18;;;;;;;6.72;1.65;;;;;;;;;;5012153;28;20025;-69
2021/05/12 08:46:45;;;;;;;14.95;2.33;;;;;;;;;;5012766;28;20486;-69
2021/05/12 08:49:14;;;;;;;12.23;2.70;;;;;;;;;;5012856;28;20029;-69
2021/05/12 08:51:42;;;;;;;9.82;1.60;;;;;;;;;;4994276;28;20022;-69
2021/05/12 08:54:09;;;;;;;17.95;2.72;;;;;;;;;;5006862;28;20026;-69
2021/05/12 08:56:36;;;;;;;18.35;3.75;;;;;;;;;;5012974;28;20030;-69
2021/05/12 08:59:04;;;;;;;6.45;2.08;;;;;;;;;;5014551;28;20085;-69
2021/05/12 09:01:32;;;;;;;11.23;1.65;;;;;;;;;;5012585;28;20053;-69
2021/05/12 09:04:01;;;;;;;11.25;1.65;;;;;;;;;;4994941;28;20038;-69
2021/05/12 09:06:28;;;;;;;11.75;2.58;;;;;;;;;;4994869;28;20512;-69
2021/05/12 09:08:57;;;;;;;10.63;2.45;;;;;;;;;;4993881;28;20059;-69
2021/05/12 09:11:24;;;;;;;12.52;3.00;;;;;;;;;;5008882;28;20029;-69
2021/05/12 09:13:51;;;;;;;14.27;4.65;;;;;;;;;;5012676;28;20068;-69
2021/05/12 09:16:29;;;;;;;17.10;4.43;;;;;;;;;;5011660;28;20101;-68
2021/05/12 09:19:09;;;;;;;15.05;4.25;;;;;;;;;;5013098;28;20053;-68
2021/05/12 09:21:50;;;;;;;11.93;3.13;;;;;;;;;;5012274;28;20033;-69
2021/05/12 09:24:23;;;;;;;10.93;3.20;;;;;;;;;;4995319;28;20104;-69
2021/05/12 09:26:51;;;;;;;14.90;3.10;;;;;;;;;;5012518;28;20018;-70
2021/05/12 09:29:50;;;;;;;7.45;1.90;;;;;;;;;;4991263;28;20044;-69
2021/05/12 09:32:19;;;;;;;13.52;2.85;;;;;;;;;;4990869;28;20145;-69
2021/05/12 09:34:49;;;;;;;8.75;1.80;;;;;;;;;;5009914;28;20040;-69
2021/05/12 09:37:23;;;;;;;13.02;2.85;;;;;;;;;;5009265;28;20091;-69
2021/05/12 09:39:51;;;;;;;13.77;2.38;;;;;;;;;;4995704;28;20021;-70
2021/05/12 09:42:20;;;;;;;8.85;1.10;;;;;;;;;;5009721;28;20034;-69
2021/05/12 09:44:47;;;;;;;7.38;1.27;;;;;;;;;;5009141;28;20494;-70
2021/05/12 09:47:30;;;;;;;12.00;2.28;;;;;;;;;;5005598;28;20057;-69
2021/05/12 09:49:57;;;;;;;12.38;1.48;;;;;;;;;;5009035;28;20022;-69
2021/05/12 09:52:30;;;;;;;6.03;1.15;;;;;;;;;;5005958;28;20044;-68
2021/05/12 09:55:01;;;;;;;11.88;1.48;;;;;;;;;;4993498;28;20030;-68
2021/05/12 09:57:29;;;;;;;10.43;2.55;;;;;;;;;;5011741;28;20018;-68
2021/05/12 09:59:56;;;;;;;9.20;1.52;;;;;;;;;;5012826;28;20033;-68
2021/05/12 10:02:23;;;;;;;9.25;1.15;;;;;;;;;;5016305;28;20057;-68
2021/05/12 10:04:51;;;;;;;9.05;1.83;;;;;;;;;;5012369;28;20049;-68
2021/05/12 10:07:18;;;;;;;17.52;2.38;;;;;;;;;;5012512;28;20045;-68
2021/05/12 10:09:47;;;;;;;10.95;1.58;;;;;;;;;;4995398;28;20510;-68
2021/05/12 10:12:16;;;;;;;14.70;1.67;;;;;;;;;;5012309;28;20041;-69
2021/05/12 10:14:45;;;;;;;6.13;1.23;;;;;;;;;;5011761;28;20026;-69
2021/05/12 10:17:14;;;;;;;9.02;1.10;;;;;;;;;;5001189;28;20038;-68
2021/05/12 10:19:41;;;;;;;12.02;2.15;;;;;;;;;;4995391;28;20062;-68
2021/05/12 10:22:09;;;;;;;12.38;2.55;;;;;;;;;;4995425;28;20038;-68
2021/05/12 10:24:38;;;;;;;7.70;1.58;;;;;;;;;;5012892;28;20026;-68
2021/05/12 10:27:24;;;;;;;8.90;1.13;;;;;;;;;;5008314;28;20479;-68
2021/05/12 10:29:56;;;;;;;10.02;1.13;;;;;;;;;;5012063;28;20026;-68
2021/05/12 10:32:28;;;;;;;4.80;1.20;;;;;;;;;;4995022;28;20117;-68
2021/05/12 10:35:06;;;;;;;12.05;1.35;;;;;;;;;;4994936;28;20046;-68
2021/05/12 10:37:44;;;;;;;11.32;1.75;;;;;;;;;;4999816;28;20034;-68
2021/05/12 10:40:21;;;;;;;6.32;1.75;;;;;;;;;;5000241;28;20394;-68
2021/05/12 10:45:42;;;;;;;8.10;1.40;;;;;;;;;;5032988;28;20038;-69
2021/05/12 10:48:27;;;;;;;7.43;1.98;;;;;;;;;;4997957;28;20034;-69
2021/05/12 10:50:54;;;;;;;9.60;1.83;;;;;;;;;;4984560;28;20088;-68
2021/05/12 10:53:22;;;;;;;7.82;1.88;;;;;;;;;;5005788;28;20039;-68
2021/05/12 10:55:59;;;;;;;8.93;1.77;;;;;;;;;;5033310;28;20110;-68
2021/05/12 10:58:34;;;;;;;13.48;2.25;;;;;;;;;;5017224;28;20517;-68
2021/05/12 11:01:02;;;;;;;8.65;2.38;;;;;;;;;;5016986;28;20034;-68
2021/05/12 11:03:47;;;;;;;8.35;1.30;;;;;;;;;;4998924;28;20030;-68
2021/05/12 11:06:14;;;;;;;6.38;1.15;;;;;;;;;;4998010;28;20057;-68
2021/05/12 11:09:00;;;;;;;5.53;1.40;;;;;;;;;;4997326;28;20029;-68
2021/05/12 11:11:27;;;;;;;5.35;1.23;;;;;;;;;;4998071;28;20398;-68
2021/05/12 11:14:13;;;;;;;7.65;0.93;;;;;;;;;;5003555;28;20445;-68
2021/05/12 11:17:00;;;;;;;7.18;1.00;;;;;;;;;;5014499;28;20145;-69
2021/05/12 11:19:44;;;;;;;4.53;1.00;;;;;;;;;;5010514;28;20034;-69
2021/05/12 11:22:28;;;;;;;8.13;1.42;;;;;;;;;;5014531;28;20025;-68
2021/05/12 11:25:03;;;;;;;5.53;1.10;;;;;;;;;;5014428;28;20054;-68
2021/05/12 11:32:25;;;;;;;11.77;2.22;;;;;;;;;;5014473;28;20371;-68
2021/05/12 11:34:52;;;;;;;7.45;1.60;;;;;;;;;;5003123;28;20022;-68
2021/05/12 11:37:24;;;;;;;16.10;1.55;;;;;;;;;;4996454;28;20046;-69
2021/05/12 11:39:53;;;;;;;11.00;2.10;;;;;;;;;;4995801;28;20478;-69
2021/05/12 11:42:21;;;;;;;15.35;1.90;;;;;;;;;;5014207;28;20081;-70
2021/05/12 11:45:02;;;;;;;10.02;1.30;;;;;;;;;;4995875;28;20030;-69
2021/05/12 11:47:30;;;;;;;16.70;2.25;;;;;;;;;;4996384;28;20026;-69
2021/05/12 11:49:57;;;;;;;20.92;2.88;;;;;;;;;;5013538;28;20018;-70
2021/05/12 11:52:31;;;;;;;10.95;2.13;;;;;;;;;;5013275;28;20021;-69
2021/05/12 11:55:08;;;;;;;13.38;2.47;;;;;;;;;;5011619;28;20475;-69
2021/05/12 11:57:36;;;;;;;10.98;2.00;;;;;;;;;;5011122;28;20104;-68
2021/05/12 12:00:06;;;;;;;16.83;3.88;;;;;;;;;;5011576;28;20030;-69
2021/05/12 12:02:35;;;;;;;22.80;3.22;;;;;;;;;;4994097;28;20034;-69
2021/05/12 12:05:03;;;;;;;20.17;3.35;;;;;;;;;;5012128;28;20025;-69
2021/05/12 12:07:32;;;;;;;21.75;2.42;;;;;;;;;;5012689;28;20064;-69
2021/05/12 12:10:02;;;;;;;18.17;2.80;;;;;;;;;;5014904;28;20018;-69
2021/05/12 12:12:30;;;;;;;16.80;3.90;;;;;;;;;;5012423;28;20018;-70
2021/05/12 12:15:23;;;;;;;20.70;2.33;;;;;;;;;;5010400;28;20044;-70
2021/05/12 12:17:52;;;;;;;21.25;2.90;;;;;;;;;;5009116;28;20042;-70
2021/05/12 12:20:19;;;;;;;17.35;2.85;;;;;;;;;;5013003;28;20026;-70
2021/05/12 12:22:50;;;;;;;17.30;2.30;;;;;;;;;;5013636;28;20034;-68
2021/05/12 12:25:18;;;;;;;14.57;2.65;;;;;;;;;;4994428;28;20026;-68
2021/05/12 12:27:48;;;;;;;20.30;2.58;;;;;;;;;;5002711;28;20026;-70
2021/05/12 12:30:17;;;;;;;18.02;2.55;;;;;;;;;;5012530;28;20034;-67
2021/05/12 12:32:44;;;;;;;14.85;3.05;;;;;;;;;;5017654;28;20500;-68
2021/05/12 12:35:11;;;;;;;17.45;2.13;;;;;;;;;;5010279;28;20022;-68
2021/05/12 12:37:41;;;;;;;17.60;2.90;;;;;;;;;;5014808;28;20026;-68
2021/05/12 12:40:10;;;;;;;12.55;2.00;;;;;;;;;;5011877;28;20113;-68
2021/05/12 12:42:43;;;;;;;9.00;1.70;;;;;;;;;;5004494;28;20492;-68
2021/05/12 12:45:10;;;;;;;17.38;2.78;;;;;;;;;;5011885;28;20034;-68
2021/05/12 12:47:37;;;;;;;13.70;2.50;;;;;;;;;;5009272;28;20486;-69
2021/05/12 12:50:06;;;;;;;14.98;1.65;;;;;;;;;;5007727;28;20450;-68
2021/05/12 12:52:41;;;;;;;15.23;2.78;;;;;;;;;;5009630;28;20126;-67
2021/05/12 12:55:20;;;;;;;11.98;2.40;;;;;;;;;;5009641;28;20026;-68
2021/05/12 12:57:47;;;;;;;14.10;2.08;;;;;;;;;;5007606;28;20049;-67
2021/05/12 13:00:27;;;;;;;7.82;2.13;;;;;;;;;;5010392;28;20026;-69
2021/05/12 13:02:57;;;;;;;10.10;1.85;;;;;;;;;;5011104;28;20112;-69
2021/05/12 13:05:24;;;;;;;11.60;1.80;;;;;;;;;;5009128;28;20032;-69
2021/05/12 13:07:51;;;;;;;28.00;7.80;;;;;;;;;;5006451;28;20026;-69
2021/05/12 13:10:32;;;;;;;11.27;4.13;;;;;;;;;;5012931;28;20064;-69
2021/05/12 13:12:59;;;;;;;28.35;14.52;;;;;;;;;;5011233;28;20479;-69
2021/05/12 13:15:31;;;;;;;19.55;8.60;;;;;;;;;;5012364;28;20552;-69
2021/05/12 13:18:02;;;;;;;17.40;7.93;;;;;;;;;;5011325;28;20101;-69
2021/05/12 13:20:30;;;;;;;15.27;2.90;;;;;;;;;;5012292;28;20080;-69
2021/05/12 13:23:16;;;;;;;12.27;3.55;;;;;;;;;;5004715;28;20113;-69
2021/05/12 13:25:48;;;;;;;10.98;1.92;;;;;;;;;;5011772;28;20109;-69
2021/05/12 13:28:16;;;;;;;13.30;1.88;;;;;;;;;;5011800;28;20026;-69
2021/05/12 13:30:43;;;;;;;17.55;2.72;;;;;;;;;;5011901;28;20022;-69
2021/05/12 13:33:10;;;;;;;9.65;1.52;;;;;;;;;;5011491;28;20108;-69
2021/05/12 13:35:37;;;;;;;21.73;3.65;;;;;;;;;;5011078;28;20022;-69
2021/05/12 13:38:06;;;;;;;10.57;2.53;;;;;;;;;;5010815;28;20030;-69
2021/05/12 13:40:33;;;;;;;11.88;2.05;;;;;;;;;;5011132;28;20538;-69
2021/05/12 13:43:02;;;;;;;6.65;1.50;;;;;;;;;;5012200;28;20030;-69
2021/05/12 13:45:29;;;;;;;14.68;2.15;;;;;;;;;;5012139;28;20026;-69
2021/05/12 13:47:56;;;;;;;12.57;2.15;;;;;;;;;;5011191;28;20375;-69
2021/05/12 13:50:27;;;;;;;10.80;1.73;;;;;;;;;;5011256;28;20068;-69
2021/05/12 13:53:04;;;;;;;15.65;2.97;;;;;;;;;;5011066;28;20018;-68
2021/05/12 13:55:49;;;;;;;11.05;1.35;;;;;;;;;;5008923;28;20030;-67
2021/05/12 13:58:48;;;;;;;6.45;1.75;;;;;;;;;;5006902;28;20048;-67
2021/05/12 14:04:02;;;;;;;14.80;1.58;;;;;;;;;;5009377;28;20061;-67
2021/05/12 14:06:31;;;;;;;11.80;1.42;;;;;;;;;;5011199;28;20032;-68
2021/05/12 14:09:08;;;;;;;12.90;1.83;;;;;;;;;;5009470;28;20475;-68
2021/05/12 14:11:41;;;;;;;11.05;1.25;;;;;;;;;;5008850;28;20129;-68
2021/05/12 14:14:18;;;;;;;8.35;1.63;;;;;;;;;;5011910;28;20025;-68
2021/05/12 14:17:02;;;;;;;9.48;1.70;;;;;;;;;;5009103;28;20046;-68
2021/05/12 14:19:29;;;;;;;13.85;1.80;;;;;;;;;;5013591;28;20109;-68
2021/05/12 14:21:57;;;;;;;7.93;1.80;;;;;;;;;;5015924;28;20533;-68
2021/05/12 14:24:26;;;;;;;7.55;1.85;;;;;;;;;;5014482;28;20026;-68
2021/05/12 14:26:55;;;;;;;10.98;1.83;;;;;;;;;;5014614;28;20423;-68
2021/05/12 14:29:31;;;;;;;8.95;1.73;;;;;;;;;;5014580;28;20026;-68
2021/05/12 14:31:59;;;;;;;12.05;2.47;;;;;;;;;;5013856;28;20026;-68
2021/05/12 14:34:26;;;;;;;13.90;3.10;;;;;;;;;;5014849;28;20117;-68
2021/05/12 14:36:54;;;;;;;12.40;3.42;;;;;;;;;;5014391;28;20029;-68
2021/05/12 14:39:21;;;;;;;13.15;4.82;;;;;;;;;;5014469;28;20402;-68
2021/05/12 14:41:49;;;;;;;11.93;3.95;;;;;;;;;;5015102;28;20501;-68
2021/05/12 14:44:16;;;;;;;17.50;3.92;;;;;;;;;;5015230;28;20041;-68
2021/05/12 14:46:43;;;;;;;11.82;3.97;;;;;;;;;;5014749;28;20098;-69
2021/05/12 14:49:10;;;;;;;13.98;4.00;;;;;;;;;;5014212;28;20034;-68
2021/05/12 14:51:39;;;;;;;9.93;3.33;;;;;;;;;;5013918;28;20109;-68
2021/05/12 14:54:13;;;;;;;10.32;3.63;;;;;;;;;;5014522;28;20048;-68
2021/05/12 15:06:53;;;;;;;13.55;4.35;;;;;;;;;;5014527;28;20030;-68
2021/05/12 15:09:21;;;;;;;15.15;4.57;;;;;;;;;;5015888;28;20053;-68
2021/05/12 15:11:48;;;;;;;8.02;3.10;;;;;;;;;;5009798;28;20113;-68
2021/05/12 15:14:16;;;;;;;8.50;3.92;;;;;;;;;;5012990;28;20096;-68